Aérodrome :
LOGIN :

S'inscrire | Disclaimer

   EN    FR    IT 

 










Légende :    VFR   VFR Marginal   IFR   IFR Intensif   IFR Très Intensif
Visi : 
Plafond : 
>= 8 km
>= 3000ft
5 à 8 km
1000 à 3000 ft
1500m à 5 km
500 à 1000 ft
800 à 1500m
200 à 500 ft
< 800m
< 200 ft
Symboles :   Orages  Brouillard  Fortes neiges  Fortes précipitations  Vent > 20 kt
SIGMETs :   Divers  Orages  Givrage  Turbulence  Onde Orograph.  Cendres Volcan.






- Altitude de l'aérodrome : 598 ft
- Code IATA : BQH


EGKB - Biggin Hill

DERNIER METAR :
  • 141150Z 22014KT 190V250 9999 SCT030 15/10 Q1002 RESHRA

METARs EXPIRÉS :
  • 141120Z 21013G26KT 170V240 9999 SHRA SCT025 15/10 Q1002
  • 141050Z 21013KT 170V250 9999 FEW018 15/12 Q1002
  • 141020Z 23008KT 190V300 9999 VCSH SCT020 SCT035 13/11 Q1002
  • 140950Z 22010KT 170V250 9999 -RADZ SCT022 14/10 Q1002
  • 140920Z 22014KT 9999 -RADZ SCT018 SCT035 12/09 Q1002
  • 140850Z 23007KT 190V280 9999 -RADZ SCT018 SCT035 13/10 Q1002
  • 140820Z 22012KT 190V250 9999 -SHRA SCT020 SCT035 13/10 Q1002
  • 140750Z 22012KT 9999 FEW018 SCT045 13/10 Q1002
  • 140720Z 21015KT 9999 FEW011 SCT046 13/11 Q1002
  • 140650Z 22011KT 9999 FEW012 13/11 Q1002

TAF TAF EGKB
Valide du 14 à 12h jusqu'au 14 à 21h UTC


141054Z 1412/1421 21012KT 9999 FEW010 SCT030
TEMPO 1412/1419 6000 SHRA
PROB30
TEMPO 1412/1418 23015G25KT 3000 +SHRA



MET'MAP, la Météo Aéronautique d'un coup d'oeil ! - Copyright ORBIFLY Décembre 2007 - Disclaimer

ORBIFLY MET'MAP TEAM :

Programmation & Développement : Alexandra Zaïnal
Sur une idée originale de : Baudouin d'Aumeries
Soutien technique & logistique : Manuel Goepfert
Assistance : Marc-Olivier Méhu




SOURCES & CREDITS :

   NOAA